createdAt,value
2023-08-14T00:02:06.384Z,70.13
2023-08-14T00:07:08.640Z,70.80
2023-08-14T00:12:10.866Z,70.89
2023-08-14T00:17:13.083Z,71.19
2023-08-14T00:22:15.548Z,71.23
2023-08-14T00:27:17.899Z,71.92
2023-08-14T00:32:20.299Z,71.73
2023-08-14T00:37:24.410Z,71.69
2023-08-14T00:42:26.568Z,71.39
2023-08-14T00:47:28.770Z,71.49
2023-08-14T00:52:33.336Z,71.67
2023-08-14T00:57:37.067Z,71.54
2023-08-14T01:02:39.977Z,71.57
2023-08-14T01:07:42.133Z,71.41
2023-08-14T01:12:54.616Z,71.43
2023-08-14T01:18:03.082Z,71.61
2023-08-14T01:23:18.790Z,71.32
2023-08-14T01:28:21.752Z,71.50
2023-08-14T01:33:23.971Z,71.16
2023-08-14T01:38:48.665Z,70.70
2023-08-14T01:43:56.245Z,70.78
2023-08-14T01:49:00.686Z,70.43
2023-08-14T01:54:03.032Z,70.50
2023-08-14T01:59:05.185Z,69.93
2023-08-14T02:04:10.332Z,70.21
2023-08-14T02:09:12.653Z,70.08
2023-08-14T02:14:14.771Z,69.84
2023-08-14T02:19:17.301Z,69.52
2023-08-14T02:24:19.520Z,68.95
2023-08-14T02:29:22.464Z,69.03
2023-08-14T02:34:44.204Z,69.71
2023-08-14T02:39:47.147Z,70.78
2023-08-14T02:44:49.706Z,71.76
2023-08-14T02:49:52.249Z,72.57
2023-08-14T02:54:54.473Z,73.19
2023-08-14T02:59:56.690Z,73.78
2023-08-14T03:04:58.905Z,74.15
2023-08-14T03:10:01.157Z,74.11
2023-08-14T03:15:03.844Z,73.96
2023-08-14T03:20:07.464Z,73.38
2023-08-14T03:25:10.010Z,73.63
2023-08-14T03:30:14.095Z,73.28
2023-08-14T03:35:16.423Z,73.17
2023-08-14T03:40:18.825Z,72.65
2023-08-14T03:45:21.558Z,72.64
2023-08-14T03:50:23.876Z,72.72
2023-08-14T03:55:26.121Z,72.05
2023-08-14T04:00:28.349Z,72.11
2023-08-14T04:05:30.554Z,72.93
2023-08-14T04:10:33.360Z,72.73
2023-08-14T04:15:35.552Z,72.88
2023-08-14T04:20:37.753Z,73.15
2023-08-14T04:25:40.037Z,72.50
2023-08-14T04:30:42.469Z,72.49
2023-08-14T04:35:44.818Z,73.16
2023-08-14T04:40:47.061Z,73.00
2023-08-14T04:45:49.569Z,73.76
2023-08-14T04:50:52.374Z,74.29
2023-08-14T04:55:54.826Z,74.62
2023-08-14T05:00:57.542Z,74.78
2023-08-14T05:05:59.785Z,74.18
2023-08-14T05:11:03.260Z,73.89
2023-08-14T05:16:08.866Z,73.68
2023-08-14T05:21:13.153Z,72.84
2023-08-14T05:26:15.393Z,72.90
2023-08-14T05:31:17.649Z,72.45
2023-08-14T05:36:19.858Z,72.34
2023-08-14T05:41:23.068Z,72.48
2023-08-14T05:46:25.700Z,73.08
2023-08-14T05:51:28.017Z,72.96
2023-08-14T05:56:30.178Z,73.52
2023-08-14T06:01:32.499Z,73.31
2023-08-14T06:06:35.028Z,73.79
2023-08-14T06:11:37.157Z,72.75
2023-08-14T06:16:39.375Z,73.01
2023-08-14T06:21:41.797Z,72.72
2023-08-14T06:26:43.926Z,72.54
2023-08-14T06:31:46.116Z,71.49
2023-08-14T06:36:48.308Z,71.19
2023-08-14T06:41:50.594Z,68.55
2023-08-14T06:46:54.696Z,68.05
2023-08-14T06:51:57.004Z,64.52
2023-08-14T06:56:59.677Z,60.85
2023-08-14T07:02:02.430Z,58.98
2023-08-14T07:07:04.589Z,59.35
2023-08-14T07:12:06.999Z,60.75
2023-08-14T07:17:09.300Z,62.54
2023-08-14T07:22:11.529Z,64.72
2023-08-14T07:27:13.628Z,65.69
2023-08-14T07:32:16.174Z,66.06
2023-08-14T07:37:18.671Z,65.62
2023-08-14T07:42:21.202Z,60.11
2023-08-14T07:47:23.974Z,55.35
2023-08-14T07:52:28.716Z,53.87
2023-08-14T07:57:31.025Z,54.67
2023-08-14T08:02:33.325Z,56.20
2023-08-14T08:07:35.663Z,56.76
2023-08-14T08:12:37.997Z,58.05
2023-08-14T08:17:40.650Z,59.78
2023-08-14T08:22:42.946Z,60.41
2023-08-14T08:27:45.092Z,59.99
2023-08-14T08:32:47.361Z,61.00
2023-08-14T08:37:49.525Z,60.71
2023-08-14T08:42:52.702Z,60.60
2023-08-14T08:47:57.817Z,59.95
2023-08-14T08:53:00.502Z,60.26
2023-08-14T08:58:03.425Z,60.74
2023-08-14T09:03:06.016Z,61.22
2023-08-14T09:08:09.912Z,61.51
2023-08-14T09:18:19.234Z,62.13
2023-08-14T09:23:21.634Z,62.02
2023-08-14T09:28:23.773Z,62.45
2023-08-14T09:33:26.088Z,62.34
2023-08-14T09:38:28.627Z,60.21
2023-08-14T09:43:32.475Z,55.73
2023-08-14T09:48:45.902Z,53.89
2023-08-14T09:53:51.826Z,53.15
2023-08-14T09:58:56.090Z,51.94
2023-08-14T10:03:58.741Z,50.41
2023-08-14T10:09:03.709Z,50.00
2023-08-14T10:14:07.651Z,49.72
2023-08-14T10:19:13.835Z,52.28
2023-08-14T10:24:16.700Z,54.25
2023-08-14T10:29:19.157Z,55.57
2023-08-14T10:34:22.716Z,56.23
2023-08-14T10:39:36.143Z,56.12
2023-08-14T10:44:38.637Z,56.90
2023-08-14T10:49:49.780Z,57.29
2023-08-14T10:54:53.379Z,57.59
2023-08-14T10:59:57.659Z,58.18
2023-08-14T11:05:13.623Z,59.03
2023-08-14T11:10:16.362Z,59.57
2023-08-14T11:15:21.526Z,59.61
2023-08-14T11:20:26.454Z,58.18
2023-08-14T11:25:28.892Z,54.67
2023-08-14T11:30:36.007Z,50.99
2023-08-14T11:35:38.334Z,48.81
2023-08-14T11:40:43.742Z,49.90
2023-08-14T11:45:46.111Z,51.10
2023-08-14T11:50:48.784Z,53.46
2023-08-14T11:55:51.412Z,55.40
2023-08-14T12:00:53.954Z,56.55
2023-08-14T12:06:05.184Z,56.23
2023-08-14T12:11:08.485Z,56.32
2023-08-14T12:16:17.781Z,55.83
2023-08-14T12:21:21.536Z,55.16
2023-08-14T12:26:24.018Z,55.52
2023-08-14T12:31:26.262Z,55.21
2023-08-14T12:36:28.572Z,54.86
2023-08-14T12:41:31.215Z,54.79
2023-08-14T12:46:33.594Z,54.76
2023-08-14T12:51:36.960Z,54.71
2023-08-14T12:56:39.435Z,55.21
2023-08-14T13:01:47.267Z,56.25
2023-08-14T13:06:51.030Z,56.88
2023-08-14T13:11:53.329Z,55.89
2023-08-14T13:16:55.667Z,55.35
2023-08-14T13:21:58.015Z,55.09
2023-08-14T13:27:08.625Z,55.50
2023-08-14T13:32:12.059Z,55.57
2023-08-14T13:37:14.204Z,55.35
2023-08-14T13:42:16.621Z,55.35
2023-08-14T13:47:19.164Z,54.64
2023-08-14T13:52:21.533Z,54.22
2023-08-14T13:57:23.807Z,53.76
2023-08-14T14:02:26.018Z,54.37
2023-08-14T14:07:32.077Z,54.62
2023-08-14T14:12:39.230Z,54.56
2023-08-14T14:17:41.713Z,54.29
2023-08-14T14:22:44.246Z,53.70
2023-08-14T14:27:46.494Z,54.44
2023-08-14T14:32:48.691Z,54.43
2023-08-14T14:37:50.826Z,54.96
2023-08-14T14:42:53.194Z,54.51
2023-08-14T14:47:55.375Z,54.42
2023-08-14T14:52:58.230Z,55.01
2023-08-14T14:58:00.386Z,55.38
2023-08-14T15:03:02.952Z,56.22
2023-08-14T15:08:05.318Z,55.95
2023-08-14T15:13:07.582Z,56.25
2023-08-14T15:18:10.217Z,57.23
2023-08-14T15:23:12.618Z,57.38
2023-08-14T15:28:14.853Z,57.22
2023-08-14T15:33:16.990Z,57.52
2023-08-14T15:38:19.429Z,57.44
2023-08-14T15:43:21.924Z,57.40
2023-08-14T15:48:24.131Z,56.68
2023-08-14T15:53:26.352Z,57.01
2023-08-14T15:58:28.556Z,57.26
2023-08-14T16:03:31.197Z,57.81
2023-08-14T16:08:33.512Z,58.17
2023-08-14T16:13:35.650Z,58.58
2023-08-14T16:18:38.138Z,58.70
2023-08-14T16:23:40.376Z,58.97
2023-08-14T16:28:42.653Z,59.48
2023-08-14T16:33:46.596Z,59.86
2023-08-14T16:38:48.809Z,60.25
2023-08-14T16:43:51.074Z,60.83
2023-08-14T16:48:53.638Z,61.56
2023-08-14T16:53:56.361Z,61.87
2023-08-14T16:58:58.586Z,62.05
2023-08-14T17:04:00.939Z,62.25
2023-08-14T17:09:03.210Z,62.59
2023-08-14T17:14:05.516Z,62.61
2023-08-14T17:19:07.739Z,62.86
2023-08-14T17:24:10.175Z,63.24
2023-08-14T17:29:12.386Z,63.61
2023-08-14T17:34:15.496Z,63.98
2023-08-14T17:39:17.796Z,63.72
2023-08-14T17:44:19.910Z,63.62
2023-08-14T17:49:22.124Z,63.84
2023-08-14T17:54:24.392Z,63.83
2023-08-14T17:59:26.552Z,63.90
2023-08-14T18:04:28.773Z,63.97
2023-08-14T18:09:30.840Z,64.07
2023-08-14T18:14:32.983Z,64.39
2023-08-14T18:19:35.144Z,64.52
2023-08-14T18:24:37.447Z,64.86
2023-08-14T18:29:39.654Z,64.98
2023-08-14T18:34:43.983Z,65.05
2023-08-14T18:39:46.200Z,65.17
2023-08-14T18:44:48.296Z,65.50
2023-08-14T18:49:50.471Z,65.64
2023-08-14T18:54:52.549Z,65.84
2023-08-14T18:59:54.685Z,65.82
2023-08-14T19:04:57.210Z,65.76
2023-08-14T19:09:59.551Z,65.83
2023-08-14T19:15:01.666Z,65.87
2023-08-14T19:20:06.152Z,65.45
2023-08-14T19:25:09.752Z,65.04
2023-08-14T19:30:12.538Z,65.14
2023-08-14T19:35:14.639Z,64.91
2023-08-14T19:40:16.825Z,64.75
2023-08-14T19:45:18.997Z,64.47
2023-08-14T19:50:21.227Z,64.25
2023-08-14T19:55:23.493Z,63.93
2023-08-14T20:00:26.282Z,63.93
2023-08-14T20:05:28.706Z,63.72
2023-08-14T20:10:30.817Z,63.45
2023-08-14T20:15:35.942Z,63.28
2023-08-14T20:20:41.909Z,63.32
2023-08-14T20:25:46.368Z,63.19
2023-08-14T20:30:48.622Z,62.75
2023-08-14T20:35:50.919Z,62.86
2023-08-14T20:40:55.687Z,62.96
2023-08-14T20:45:57.965Z,62.80
2023-08-14T20:51:03.086Z,62.80
2023-08-14T20:56:05.533Z,62.88
2023-08-14T21:01:07.612Z,63.55
2023-08-14T21:06:09.762Z,63.76
2023-08-14T21:11:15.183Z,63.93
2023-08-14T21:16:17.508Z,64.11
2023-08-14T21:21:20.702Z,64.38
2023-08-14T21:26:22.784Z,64.63
2023-08-14T21:31:24.942Z,64.77
2023-08-14T21:36:27.237Z,64.97
2023-08-14T21:41:29.409Z,64.80
2023-08-14T21:46:34.251Z,65.10
2023-08-14T21:51:37.453Z,65.50
2023-08-14T21:56:39.772Z,65.39
2023-08-14T22:01:43.983Z,65.34
2023-08-14T22:06:46.400Z,65.49
2023-08-14T22:11:48.566Z,65.66
2023-08-14T22:16:51.112Z,65.60
2023-08-14T22:21:53.203Z,65.81
2023-08-14T22:26:55.404Z,65.79
2023-08-14T22:31:57.605Z,66.02
2023-08-14T22:36:59.760Z,66.28
2023-08-14T22:42:01.835Z,66.53
2023-08-14T22:47:03.961Z,66.80
2023-08-14T22:52:06.255Z,66.80
2023-08-14T22:57:08.483Z,66.65
2023-08-14T23:02:10.771Z,67.03
2023-08-14T23:07:12.842Z,66.88
2023-08-14T23:12:14.914Z,67.24
2023-08-14T23:17:17.311Z,67.27
2023-08-14T23:22:19.437Z,67.31
2023-08-14T23:27:21.800Z,67.34
2023-08-14T23:32:24.050Z,67.31
2023-08-14T23:37:26.878Z,67.47
2023-08-14T23:42:29.060Z,67.51
2023-08-14T23:47:31.220Z,67.30
2023-08-14T23:52:33.489Z,67.53
2023-08-14T23:57:35.583Z,67.63
